Time;durP1;ratioP1;P1;durP2;ratioP2;P2;SDS_P1;SDS_P2;PMS_P1;PMS_P2;Temp;Humidity;BMP_temperature;BMP_pressure;BME280_temperature;BME280_humidity;BME280_pressure;Samples;Min_cycle;Max_cycle;Signal;HPM_P1;HPM_P2
2023/11/27 00:02:24;;;;;;;1.73;1.63;;;;;;;21.34;52.64;97119.06;4937017;29;20209;-31
2023/11/27 00:04:51;;;;;;;1.60;1.50;;;;;;;21.34;52.58;97116.53;4935384;29;20283;-26
2023/11/27 00:07:18;;;;;;;1.50;1.40;;;;;;;21.33;52.78;97113.13;4936484;29;20252;-33
2023/11/27 00:09:45;;;;;;;1.93;1.73;;;;;;;21.33;52.69;97114.81;4933674;29;20263;-29
2023/11/27 00:12:11;;;;;;;1.63;1.53;;;;;;;21.34;52.59;97113.97;4936808;29;20212;-30
2023/11/27 00:14:38;;;;;;;1.70;1.60;;;;;;;21.34;52.69;97111.41;4935058;29;20233;-31
2023/11/27 00:17:04;;;;;;;1.80;1.70;;;;;;;21.33;52.79;97102.91;4929967;29;20239;-26
2023/11/27 00:19:31;;;;;;;1.57;1.47;;;;;;;21.33;52.87;97110.56;4934622;29;20247;-26
2023/11/27 00:21:58;;;;;;;1.63;1.50;;;;;;;21.34;52.59;97112.28;4935791;29;20649;-26
2023/11/27 00:24:25;;;;;;;1.70;1.60;;;;;;;21.33;52.79;97105.44;4934714;29;20756;-26
2023/11/27 00:26:52;;;;;;;1.53;1.43;;;;;;;21.33;52.51;97108.00;4935133;29;20229;-26
2023/11/27 00:29:18;;;;;;;1.50;1.40;;;;;;;21.33;52.87;97100.34;4935321;29;20295;-26
2023/11/27 00:31:45;;;;;;;1.70;1.60;;;;;;;21.33;52.81;97097.78;4934806;29;20213;-27
2023/11/27 00:34:11;;;;;;;1.70;1.60;;;;;;;21.33;52.73;97094.34;4935020;29;20366;-29
2023/11/27 00:36:38;;;;;;;1.83;1.73;;;;;;;21.25;52.94;97078.84;4937162;29;20595;-28
2023/11/27 00:39:08;;;;;;;1.57;1.47;;;;;;;21.32;52.97;97090.91;4934846;28;20210;-26
2023/11/27 00:41:35;;;;;;;1.80;1.70;;;;;;;21.34;52.65;97091.84;4935759;29;20209;-26
2023/11/27 00:44:02;;;;;;;1.60;1.50;;;;;;;21.34;52.57;97091.84;4936196;28;20248;-28
2023/11/27 00:46:28;;;;;;;1.70;1.60;;;;;;;21.33;52.88;97090.13;4935479;29;20252;-26
2023/11/27 00:48:55;;;;;;;1.50;1.40;;;;;;;21.34;52.72;97085.84;4938135;28;20695;-26
2023/11/27 00:51:22;;;;;;;1.57;1.47;;;;;;;21.34;52.70;97080.72;4935076;29;20660;-29
2023/11/27 00:53:49;;;;;;;1.60;1.50;;;;;;;21.33;52.59;97085.00;4937340;29;20216;-27
2023/11/27 00:56:15;;;;;;;1.60;1.50;;;;;;;21.33;52.53;97085.00;4935002;29;20256;-26
2023/11/27 00:58:42;;;;;;;1.60;1.50;;;;;;;21.33;52.71;97081.56;4939543;29;20225;-26
2023/11/27 01:01:08;;;;;;;1.67;1.57;;;;;;;21.32;52.56;97085.81;4934782;29;20767;-29
2023/11/27 01:03:36;;;;;;;1.80;1.70;;;;;;;21.32;52.67;97080.69;4934077;29;20732;-26
2023/11/27 01:06:04;;;;;;;1.60;1.50;;;;;;;21.33;52.62;97076.47;4933154;29;20668;-31
2023/11/27 01:08:31;;;;;;;1.60;1.50;;;;;;;21.33;52.76;97071.34;4935037;29;20200;-35
2023/11/27 01:10:57;;;;;;;1.40;1.30;;;;;;;21.32;52.72;97075.59;4934695;29;20229;-28
2023/11/27 01:13:24;;;;;;;1.70;1.60;;;;;;;21.33;52.77;97063.69;4939640;29;20287;-26
2023/11/27 01:15:56;;;;;;;1.60;1.50;;;;;;;21.33;52.85;97067.13;4933932;29;20225;-28
2023/11/27 01:18:23;;;;;;;1.60;1.47;;;;;;;21.32;52.79;97067.91;4932620;29;20240;-27
2023/11/27 01:20:50;;;;;;;1.83;1.73;;;;;;;21.33;52.54;97066.25;4934846;29;20205;-26
2023/11/27 01:23:16;;;;;;;1.60;1.50;;;;;;;21.33;52.71;97061.13;4939719;29;20256;-27
2023/11/27 01:25:43;;;;;;;1.60;1.50;;;;;;;21.33;52.63;97064.56;4933962;29;20260;-27
2023/11/27 01:28:10;;;;;;;1.93;1.40;;;;;;;21.33;52.69;97066.25;4935708;29;20224;-26
2023/11/27 01:30:37;;;;;;;1.70;1.60;;;;;;;21.33;52.68;97059.44;4934361;29;20197;-28
2023/11/27 01:33:04;;;;;;;1.50;1.40;;;;;;;21.33;52.78;97058.56;4935860;29;20292;-28
2023/11/27 01:35:31;;;;;;;1.50;1.40;;;;;;;21.33;52.85;97056.88;4933739;29;20324;-26
2023/11/27 01:37:58;;;;;;;1.60;1.50;;;;;;;21.33;52.91;97051.78;4939248;28;20233;-30
2023/11/27 01:40:25;;;;;;;1.57;1.47;;;;;;;21.33;52.74;97051.78;4930879;29;20236;-26
2023/11/27 01:42:51;;;;;;;1.50;1.40;;;;;;;21.34;52.54;97050.06;4933848;29;20208;-26
2023/11/27 01:45:18;;;;;;;1.70;1.60;;;;;;;21.33;52.87;97044.09;4933546;29;20727;-26
2023/11/27 01:47:44;;;;;;;1.50;1.40;;;;;;;21.32;52.61;97039.81;4938568;28;20280;-28
2023/11/27 01:50:11;;;;;;;1.57;1.47;;;;;;;21.32;52.57;97033.84;4933067;29;20284;-27
2023/11/27 01:52:40;;;;;;;1.60;1.50;;;;;;;21.32;52.94;97031.28;4953490;28;20204;-26
2023/11/27 01:55:08;;;;;;;1.60;1.50;;;;;;;21.30;52.62;97027.84;4931592;29;20220;-31
2023/11/27 01:57:34;;;;;;;1.70;1.60;;;;;;;21.32;52.35;97028.75;4938669;29;20259;-30
2023/11/27 02:00:03;;;;;;;1.30;1.20;;;;;;;21.32;52.53;97031.28;4933992;29;20219;-29
2023/11/27 02:02:30;;;;;;;1.70;1.60;;;;;;;21.31;52.80;97030.41;4939207;29;20208;-26
2023/11/27 02:04:57;;;;;;;1.70;1.43;;;;;;;21.31;52.72;97025.31;4951618;28;20229;-28
2023/11/27 02:07:24;;;;;;;1.50;1.40;;;;;;;21.32;52.60;97021.91;4939322;29;20232;-36
2023/11/27 02:09:50;;;;;;;1.60;1.50;;;;;;;21.24;52.75;97002.13;4933061;29;20561;-26
2023/11/27 02:12:17;;;;;;;1.60;1.50;;;;;;;21.32;52.60;97019.34;4939884;28;20197;-26
2023/11/27 02:14:45;;;;;;;2.03;1.33;;;;;;;21.32;52.88;97005.72;4937756;28;20220;-26
2023/11/27 02:17:11;;;;;;;1.47;1.37;;;;;;;21.31;52.73;97006.53;4938831;29;20338;-26
2023/11/27 02:19:38;;;;;;;1.57;1.47;;;;;;;21.32;52.59;97014.25;4938481;28;20205;-31
2023/11/27 02:22:04;;;;;;;1.50;1.40;;;;;;;21.32;52.64;97006.56;4938191;29;20292;-27
2023/11/27 02:24:31;;;;;;;1.40;1.30;;;;;;;21.31;52.61;97002.31;4939122;28;20268;-26
2023/11/27 02:26:58;;;;;;;1.60;1.50;;;;;;;21.31;52.85;97004.88;4936437;29;20276;-26
2023/11/27 02:29:24;;;;;;;1.50;1.40;;;;;;;21.31;52.81;96996.31;4939730;29;20248;-27
2023/11/27 02:31:51;;;;;;;1.50;1.40;;;;;;;21.32;52.67;96998.06;4936644;29;20211;-27
2023/11/27 02:34:18;;;;;;;1.50;1.40;;;;;;;21.32;52.85;96998.06;4937288;29;20579;-26
2023/11/27 02:36:44;;;;;;;1.73;1.40;;;;;;;21.33;52.81;96994.66;4936796;29;20786;-27
2023/11/27 02:39:14;;;;;;;1.50;1.40;;;;;;;21.31;52.65;96997.19;4937802;29;20212;-26
2023/11/27 02:41:41;;;;;;;1.50;1.40;;;;;;;21.32;52.61;96993.78;4936361;29;20209;-29
2023/11/27 02:44:09;;;;;;;1.70;1.60;;;;;;;21.32;53.37;96986.13;4939415;29;20640;-26
2023/11/27 02:46:36;;;;;;;1.40;1.30;;;;;;;21.31;52.77;96981.84;4935747;29;20248;-26
2023/11/27 02:49:03;;;;;;;1.50;1.40;;;;;;;21.31;52.95;96971.63;4938775;29;20589;-26
2023/11/27 02:51:29;;;;;;;1.60;1.50;;;;;;;21.32;52.48;96977.63;4936578;29;20239;-29
2023/11/27 02:53:56;;;;;;;1.37;1.27;;;;;;;21.31;52.51;96976.75;4936104;29;20720;-31
2023/11/27 02:56:23;;;;;;;1.50;1.40;;;;;;;21.31;52.66;96970.75;4936806;29;20221;-26
2023/11/27 02:58:50;;;;;;;1.60;1.50;;;;;;;21.31;52.78;96963.97;4938001;29;20627;-26
2023/11/27 03:01:16;;;;;;;1.53;1.43;;;;;;;21.32;52.45;96959.72;4936555;29;20201;-26
2023/11/27 03:03:43;;;;;;;1.40;1.30;;;;;;;21.31;52.53;96950.31;4936944;29;20292;-26
2023/11/27 03:06:10;;;;;;;1.60;1.50;;;;;;;21.31;52.65;96952.88;4937074;29;20272;-28
2023/11/27 03:08:37;;;;;;;1.50;1.40;;;;;;;21.32;52.61;96952.06;4935373;29;20200;-29
2023/11/27 03:11:04;;;;;;;1.60;1.50;;;;;;;21.31;52.82;96961.41;4936689;29;20204;-29
2023/11/27 03:13:31;;;;;;;1.50;1.40;;;;;;;21.31;52.57;96958.84;4935099;29;20237;-26
2023/11/27 03:15:57;;;;;;;1.50;1.40;;;;;;;21.33;52.71;96958.88;4936487;29;20233;-27
2023/11/27 03:18:24;;;;;;;1.60;1.50;;;;;;;21.33;52.62;96954.66;4937238;29;20247;-26
2023/11/27 03:20:51;;;;;;;1.50;1.40;;;;;;;21.31;52.86;96938.41;4936101;29;20205;-27
2023/11/27 03:23:17;;;;;;;1.83;1.73;;;;;;;21.32;52.69;96937.56;4936144;29;20212;-28
2023/11/27 03:25:44;;;;;;;1.57;1.47;;;;;;;21.31;52.62;96935.84;4936319;29;20228;-26
2023/11/27 03:28:10;;;;;;;1.47;1.37;;;;;;;21.32;52.56;96932.47;4942073;29;20675;-26
2023/11/27 03:30:38;;;;;;;1.50;1.40;;;;;;;21.31;52.54;96930.75;4936433;28;20237;-27
2023/11/27 03:33:05;;;;;;;1.53;1.43;;;;;;;21.31;52.57;96935.84;4936768;29;20619;-27
2023/11/27 03:35:31;;;;;;;1.40;1.30;;;;;;;21.33;52.80;96928.22;4936210;29;20224;-27
2023/11/27 03:37:58;;;;;;;1.30;1.23;;;;;;;21.32;52.58;96927.34;4939343;29;20251;-26
2023/11/27 03:40:24;;;;;;;1.50;1.40;;;;;;;21.33;52.88;96925.66;4937995;28;20228;-26
2023/11/27 03:42:51;;;;;;;1.70;1.57;;;;;;;21.32;52.72;96917.13;4938312;29;20201;-26
2023/11/27 03:45:18;;;;;;;1.37;1.27;;;;;;;21.32;52.64;96922.22;4940779;28;20201;-32
2023/11/27 03:47:44;;;;;;;1.23;1.23;;;;;;;21.32;52.63;96911.16;4935643;29;20229;-27
2023/11/27 03:50:11;;;;;;;1.73;1.50;;;;;;;21.31;52.52;96907.75;4938514;28;20223;-29
2023/11/27 03:52:37;;;;;;;1.60;1.50;;;;;;;21.32;52.31;96903.50;4935000;29;20557;-26
2023/11/27 03:55:04;;;;;;;1.60;1.50;;;;;;;21.31;52.38;96899.19;4936693;29;20659;-28
2023/11/27 03:57:31;;;;;;;1.40;1.30;;;;;;;21.32;52.47;96900.94;4935833;29;20276;-28
2023/11/27 03:59:57;;;;;;;1.40;1.30;;;;;;;21.31;52.60;96891.53;4942450;29;20205;-26
2023/11/27 04:02:24;;;;;;;1.50;1.40;;;;;;;21.31;52.66;96888.97;4934994;29;20215;-32
2023/11/27 04:04:51;;;;;;;1.50;1.40;;;;;;;21.31;52.65;96884.75;4941427;29;20291;-27
2023/11/27 04:07:17;;;;;;;1.60;1.50;;;;;;;21.31;52.78;96888.97;4935527;29;20303;-26
2023/11/27 04:09:44;;;;;;;1.40;1.30;;;;;;;21.32;52.54;96883.06;4935445;29;20243;-26
2023/11/27 04:12:10;;;;;;;1.40;1.30;;;;;;;21.32;52.85;96880.50;4935623;29;20232;-31
2023/11/27 04:14:37;;;;;;;1.20;1.20;;;;;;;21.32;52.42;96889.00;4935267;29;20251;-27
2023/11/27 04:17:04;;;;;;;1.33;1.30;;;;;;;21.31;52.60;96882.19;4934995;29;20700;-27
2023/11/27 04:19:30;;;;;;;1.37;1.27;;;;;;;21.32;52.54;96883.91;4933767;29;20209;-33
2023/11/27 04:21:57;;;;;;;1.37;1.27;;;;;;;21.32;52.85;96881.34;4931227;29;20197;-33
2023/11/27 04:24:23;;;;;;;1.23;1.23;;;;;;;21.33;52.58;96872.88;4926607;29;20205;-26
2023/11/27 04:26:50;;;;;;;1.40;1.30;;;;;;;21.33;52.46;96874.53;4933734;29;21147;-28
2023/11/27 04:29:18;;;;;;;1.87;1.30;;;;;;;21.33;52.64;96874.53;4933857;29;20212;-28
2023/11/27 04:31:44;;;;;;;1.40;1.30;;;;;;;21.24;52.44;96859.91;4933591;29;20631;-26
2023/11/27 04:34:11;;;;;;;1.40;1.30;;;;;;;21.33;52.57;96875.41;4932744;29;20197;-26
2023/11/27 04:36:38;;;;;;;1.40;1.30;;;;;;;21.32;52.77;96873.66;4932357;29;20648;-28
2023/11/27 04:39:04;;;;;;;1.17;1.13;;;;;;;21.33;52.59;96869.44;4936416;29;20248;-27
2023/11/27 04:41:31;;;;;;;1.43;1.33;;;;;;;21.32;52.50;96870.28;4935264;29;20615;-26
2023/11/27 04:43:58;;;;;;;1.40;1.30;;;;;;;21.33;52.32;96872.00;4936948;29;20208;-30
2023/11/27 04:46:24;;;;;;;1.40;1.30;;;;;;;21.33;52.55;96869.44;4933415;29;20225;-26
2023/11/27 04:48:51;;;;;;;1.50;1.40;;;;;;;21.33;52.45;96869.44;4936125;28;20228;-27
2023/11/27 04:51:18;;;;;;;1.40;1.30;;;;;;;21.32;52.11;96863.44;4936374;29;20201;-26
2023/11/27 04:53:45;;;;;;;1.40;1.30;;;;;;;21.33;52.00;96860.09;4936480;29;20263;-26
2023/11/27 04:56:11;;;;;;;1.40;1.30;;;;;;;21.33;52.18;96856.66;4936381;29;20228;-26
2023/11/27 04:58:38;;;;;;;1.40;1.30;;;;;;;21.32;52.21;96853.22;4940582;29;20683;-31
2023/11/27 05:01:04;;;;;;;1.40;1.30;;;;;;;21.32;52.25;96853.22;4936946;29;20660;-35
2023/11/27 05:03:31;;;;;;;1.20;1.20;;;;;;;21.33;52.29;96843.88;4940962;29;20300;-26
2023/11/27 05:05:58;;;;;;;1.17;1.17;;;;;;;21.32;52.49;96840.44;4938058;29;20240;-30
2023/11/27 05:08:25;;;;;;;1.40;1.30;;;;;;;21.32;52.55;96831.94;4923844;29;20564;-29
2023/11/27 05:10:52;;;;;;;1.40;1.30;;;;;;;21.33;52.47;96838.75;4938612;29;21365;-26
2023/11/27 05:13:18;;;;;;;1.53;1.43;;;;;;;21.33;52.51;96841.31;4934717;29;20727;-27
2023/11/27 05:15:45;;;;;;;1.20;1.20;;;;;;;21.33;52.44;96843.88;4933964;29;20224;-30
2023/11/27 05:18:12;;;;;;;1.13;1.13;;;;;;;21.32;52.50;96844.72;4934923;29;20201;-27
2023/11/27 05:20:39;;;;;;;1.10;1.10;;;;;;;21.34;52.33;96845.59;4933372;29;20201;-27
2023/11/27 05:23:07;;;;;;;1.43;1.33;;;;;;;21.35;52.45;96844.78;4934867;29;20201;-27
2023/11/27 05:25:34;;;;;;;2.00;1.43;;;;;;;21.34;52.26;96843.91;4936692;28;20212;-30
2023/11/27 05:28:00;;;;;;;1.70;1.40;;;;;;;21.37;52.77;96841.41;4933643;29;20197;-30
2023/11/27 05:30:27;;;;;;;2.63;1.43;;;;;;;21.38;52.66;96840.56;4937432;29;20571;-26
2023/11/27 05:32:54;;;;;;;3.67;1.33;;;;;;;21.36;52.21;96831.16;4938552;29;20216;-26
2023/11/27 05:35:20;;;;;;;2.90;1.40;;;;;;;21.35;52.57;96827.72;4930640;29;20662;-35
2023/11/27 05:37:47;;;;;;;3.80;1.67;;;;;;;21.35;52.24;96826.88;4929254;29;20225;-26
2023/11/27 05:40:13;;;;;;;1.43;1.30;;;;;;;21.36;52.43;96823.47;4936306;29;20225;-27
2023/11/27 05:42:40;;;;;;;1.87;1.27;;;;;;;21.35;52.38;96822.63;4935027;29;20211;-35
2023/11/27 05:45:10;;;;;;;2.87;1.40;;;;;;;21.35;52.59;96822.63;4934079;29;20728;-28
2023/11/27 05:47:40;;;;;;;4.90;1.60;;;;;;;21.37;52.66;96820.09;4935113;29;20231;-27
2023/11/27 05:50:09;;;;;;;2.40;1.50;;;;;;;21.38;52.72;96814.16;4936525;29;20208;-28
2023/11/27 05:52:36;;;;;;;1.97;1.30;;;;;;;21.30;52.49;96806.34;4934752;29;20609;-26
2023/11/27 05:55:03;;;;;;;2.30;1.27;;;;;;;21.37;52.52;96810.72;4935751;29;20215;-28
2023/11/27 05:57:30;;;;;;;1.50;1.40;;;;;;;21.36;52.26;96814.13;4935076;29;20307;-30
2023/11/27 05:59:57;;;;;;;1.40;1.30;;;;;;;21.37;52.17;96814.97;4935506;29;20212;-28
2023/11/27 06:02:23;;;;;;;1.77;1.43;;;;;;;21.36;52.22;96809.03;4934570;29;20255;-32
2023/11/27 06:04:50;;;;;;;2.10;1.40;;;;;;;21.36;52.39;96810.72;4935230;29;20715;-31
2023/11/27 06:07:16;;;;;;;2.10;1.23;;;;;;;21.35;52.19;96801.31;4934067;29;20228;-30
2023/11/27 06:09:44;;;;;;;1.60;1.50;;;;;;;21.35;52.13;96802.16;4933717;29;20216;-35
2023/11/27 06:12:11;;;;;;;2.30;2.10;;;;;;;21.34;48.17;96795.34;4934881;29;20259;-28
2023/11/27 06:14:39;;;;;;;3.07;2.77;;;;;;;21.32;46.07;96791.03;4941656;28;20591;-27
2023/11/27 06:17:06;;;;;;;4.07;3.23;;;;;;;21.30;44.50;96796.13;4934082;28;20236;-29
2023/11/27 06:19:33;;;;;;;4.40;3.87;;;;;;;21.29;43.39;96794.38;4942390;28;20216;-27
2023/11/27 06:21:59;;;;;;;4.73;4.30;;;;;;;21.26;42.67;96791.78;4933240;28;20303;-30
2023/11/27 06:24:28;;;;;;;4.83;4.43;;;;;;;21.24;41.97;96790.03;4926421;28;20213;-27
2023/11/27 06:26:55;;;;;;;5.10;4.60;;;;;;;21.22;41.46;96784.03;4937856;28;20611;-29
2023/11/27 06:29:22;;;;;;;5.10;4.60;;;;;;;21.20;40.77;96788.25;4938742;28;20570;-30
2023/11/27 06:31:48;;;;;;;4.60;4.20;;;;;;;21.17;40.47;96781.38;4935177;28;20303;-34
2023/11/27 06:34:16;;;;;;;5.57;3.80;;;;;;;21.17;40.29;96785.66;4936994;28;20209;-26
2023/11/27 06:36:43;;;;;;;4.03;3.63;;;;;;;21.13;39.69;96776.19;4936304;28;20240;-30
2023/11/27 06:39:09;;;;;;;4.50;3.70;;;;;;;21.02;39.51;96760.66;4937170;28;20212;-27
2023/11/27 06:41:36;;;;;;;4.00;3.60;;;;;;;21.08;39.20;96773.53;4953037;28;20267;-28
2023/11/27 06:44:02;;;;;;;3.67;3.37;;;;;;;21.08;39.86;96762.47;4936075;28;20260;-26
2023/11/27 06:46:29;;;;;;;3.67;3.37;;;;;;;21.06;42.30;96757.34;4938644;28;20236;-27
2023/11/27 06:48:56;;;;;;;4.23;3.27;;;;;;;21.05;42.31;96755.59;4934921;29;20205;-26
2023/11/27 06:51:22;;;;;;;3.47;3.17;;;;;;;21.06;42.22;96749.69;4935638;28;20229;-29
2023/11/27 06:53:49;;;;;;;3.63;3.00;;;;;;;21.04;42.13;96741.13;4933732;28;20232;-30
2023/11/27 06:56:16;;;;;;;3.17;2.97;;;;;;;21.07;42.59;96740.31;4934806;28;20221;-30
2023/11/27 06:58:42;;;;;;;3.07;2.77;;;;;;;21.07;42.94;96738.63;4933860;29;20295;-27
2023/11/27 07:01:12;;;;;;;3.10;2.90;;;;;;;21.09;44.08;96741.19;4937246;29;20586;-26
2023/11/27 07:03:38;;;;;;;3.37;3.07;;;;;;;21.08;41.55;96742.03;4932955;29;20221;-28
2023/11/27 07:06:06;;;;;;;5.40;3.50;;;;;;;21.02;40.28;96727.44;4936450;29;20221;-29
2023/11/27 07:08:34;;;;;;;3.60;3.30;;;;;;;21.06;42.25;96741.16;4933758;29;20213;-33
2023/11/27 07:11:02;;;;;;;2.97;2.70;;;;;;;21.04;42.72;96733.44;4936282;29;20519;-29
2023/11/27 07:13:29;;;;;;;4.80;3.27;;;;;;;21.05;43.19;96730.06;4934607;29;20287;-26
2023/11/27 07:15:56;;;;;;;3.07;2.77;;;;;;;21.05;43.20;96730.06;4938141;29;20678;-29
2023/11/27 07:18:23;;;;;;;5.23;2.97;;;;;;;21.05;43.30;96717.28;4934363;29;20216;-26
2023/11/27 07:20:57;;;;;;;3.27;2.97;;;;;;;21.06;43.42;96713.91;4952152;28;20205;-29
2023/11/27 07:23:26;;;;;;;3.37;2.67;;;;;;;21.07;43.63;96709.66;4933722;29;20245;-31
2023/11/27 07:25:53;;;;;;;3.93;2.53;;;;;;;21.09;43.87;96713.09;4938072;29;20307;-33
2023/11/27 07:28:20;;;;;;;2.80;2.60;;;;;;;21.10;44.10;96710.56;4933870;29;20527;-27
2023/11/27 07:30:46;;;;;;;2.80;2.50;;;;;;;21.11;44.16;96712.28;4931674;28;20236;-30
2023/11/27 07:33:14;;;;;;;3.90;2.93;;;;;;;21.13;44.58;96710.63;4931829;28;20909;-33
2023/11/27 07:35:41;;;;;;;5.07;2.77;;;;;;;21.13;44.46;96708.06;4934780;28;20205;-35
2023/11/27 07:38:07;;;;;;;5.23;2.70;;;;;;;21.14;45.07;96707.22;4932669;28;20299;-29
2023/11/27 07:40:34;;;;;;;3.10;2.80;;;;;;;21.11;45.34;96698.66;4933241;28;20596;-27
2023/11/27 07:43:10;;;;;;;2.80;2.60;;;;;;;21.16;45.64;96697.91;4933402;28;20628;-32
2023/11/27 07:45:37;;;;;;;3.33;2.63;;;;;;;21.18;45.80;96703.03;4931118;28;20235;-28
2023/11/27 07:48:04;;;;;;;2.50;2.30;;;;;;;21.18;45.99;96690.25;4929335;28;20707;-28
2023/11/27 07:50:31;;;;;;;2.80;2.50;;;;;;;21.18;46.00;96696.25;4933432;28;20211;-31
2023/11/27 07:52:57;;;;;;;2.80;2.60;;;;;;;21.18;46.28;96700.47;4927647;28;20225;-31
2023/11/27 07:55:24;;;;;;;2.50;2.30;;;;;;;21.19;46.42;96697.09;4934356;28;20281;-35
2023/11/27 07:57:51;;;;;;;2.53;2.33;;;;;;;21.19;46.31;96702.19;4932521;28;20258;-29
2023/11/27 08:00:17;;;;;;;2.57;2.37;;;;;;;21.19;46.42;96697.97;4935531;28;20299;-26
2023/11/27 08:02:44;;;;;;;3.43;2.87;;;;;;;21.19;46.39;96680.06;4931586;28;20213;-27
2023/11/27 08:05:11;;;;;;;2.67;2.30;;;;;;;21.18;46.44;96691.13;4932956;28;20213;-26
2023/11/27 08:07:38;;;;;;;2.40;2.20;;;;;;;21.21;46.82;96687.75;4932244;28;20225;-27
2023/11/27 08:10:08;;;;;;;2.57;2.37;;;;;;;21.21;46.73;96680.09;4932175;28;20321;-29
2023/11/27 08:12:38;;;;;;;2.40;2.20;;;;;;;21.21;46.76;96675.84;4932606;28;20497;-27
2023/11/27 08:15:08;;;;;;;2.53;2.33;;;;;;;21.21;47.06;96677.53;4933188;28;20260;-35
2023/11/27 08:17:34;;;;;;;3.10;2.20;;;;;;;21.22;46.94;96671.59;4927705;28;20739;-26
2023/11/27 08:20:05;;;;;;;2.30;2.10;;;;;;;21.22;47.30;96675.00;4934076;28;20223;-30
2023/11/27 08:22:32;;;;;;;3.53;2.57;;;;;;;21.22;47.33;96669.03;4932893;28;20668;-27
2023/11/27 08:25:00;;;;;;;3.90;2.20;;;;;;;21.24;47.30;96664.81;4934116;28;20288;-29
2023/11/27 08:27:27;;;;;;;2.70;2.50;;;;;;;21.22;47.41;96664.78;4930370;28;20610;-31
2023/11/27 08:29:53;;;;;;;4.50;2.40;;;;;;;21.25;47.82;96672.50;4932362;28;20216;-29
2023/11/27 08:32:20;;;;;;;3.23;2.37;;;;;;;21.25;47.63;96667.41;4932275;28;20205;-26
2023/11/27 08:34:46;;;;;;;2.57;2.37;;;;;;;21.25;47.85;96663.97;4932690;28;20213;-26
2023/11/27 08:37:16;;;;;;;2.20;2.00;;;;;;;21.25;47.73;96669.94;4932156;28;20296;-29
2023/11/27 08:39:43;;;;;;;2.10;2.00;;;;;;;21.25;47.67;96659.72;4932960;28;20716;-28
2023/11/27 08:42:10;;;;;;;2.43;2.23;;;;;;;21.25;47.75;96661.41;4933388;28;20260;-28
2023/11/27 08:44:37;;;;;;;3.03;2.27;;;;;;;21.25;47.79;96659.72;4932934;28;20213;-29
2023/11/27 08:47:05;;;;;;;2.20;2.00;;;;;;;21.26;48.17;96655.50;4932947;28;20229;-30
2023/11/27 08:49:31;;;;;;;5.20;2.23;;;;;;;21.27;48.12;96650.41;4932355;28;20200;-29
2023/11/27 08:51:58;;;;;;;2.50;2.30;;;;;;;21.27;48.04;96646.97;4932855;28;20212;-29
2023/11/27 08:54:32;;;;;;;2.17;2.03;;;;;;;21.27;48.18;96636.75;4932291;28;20276;-27
2023/11/27 08:56:58;;;;;;;2.13;2.03;;;;;;;21.27;48.26;96636.75;4932728;28;20380;-36
2023/11/27 08:59:25;;;;;;;2.33;2.10;;;;;;;21.27;48.40;96632.53;4929776;28;20648;-26
2023/11/27 09:01:52;;;;;;;1.97;1.83;;;;;;;21.28;48.11;96633.34;4937287;28;20683;-28
2023/11/27 09:04:19;;;;;;;2.00;1.87;;;;;;;21.28;48.21;96636.78;4947096;28;20201;-33
2023/11/27 09:06:45;;;;;;;2.27;2.07;;;;;;;21.29;48.31;96632.53;4936743;28;20299;-29
2023/11/27 09:09:12;;;;;;;3.40;2.20;;;;;;;21.30;48.46;96624.03;4938199;28;20422;-29
2023/11/27 09:11:39;;;;;;;2.00;1.80;;;;;;;21.29;48.33;96614.66;4936398;28;20212;-35
2023/11/27 09:14:05;;;;;;;2.03;1.80;;;;;;;21.28;48.64;96616.34;4936406;28;20209;-26
2023/11/27 09:16:32;;;;;;;2.67;2.10;;;;;;;21.30;48.29;96624.03;4936243;28;20228;-27
2023/11/27 09:18:59;;;;;;;2.33;1.90;;;;;;;21.29;48.57;96612.94;4934855;28;20296;-32
2023/11/27 09:21:26;;;;;;;2.47;1.90;;;;;;;21.29;48.67;96615.50;4936618;28;20209;-27
2023/11/27 09:23:54;;;;;;;2.27;2.07;;;;;;;21.31;48.35;96612.97;4935024;28;20268;-28
2023/11/27 09:26:21;;;;;;;2.23;1.97;;;;;;;21.31;48.18;96602.75;4936774;28;20233;-26
2023/11/27 09:28:47;;;;;;;2.20;2.00;;;;;;;21.29;48.48;96596.78;4936036;28;20209;-33
2023/11/27 09:31:15;;;;;;;2.07;1.90;;;;;;;21.30;48.36;96590.81;4935449;28;20209;-27
2023/11/27 09:33:41;;;;;;;1.90;1.80;;;;;;;21.29;48.35;96595.06;4935773;29;20612;-27
2023/11/27 09:36:13;;;;;;;2.07;1.97;;;;;;;21.30;48.54;96590.81;4934555;28;20229;-27
2023/11/27 09:38:40;;;;;;;1.87;1.70;;;;;;;21.28;48.62;96578.00;4935747;28;20209;-30
2023/11/27 09:41:07;;;;;;;2.23;2.03;;;;;;;21.26;48.69;96573.72;4937955;28;20209;-26
2023/11/27 09:43:35;;;;;;;1.77;1.67;;;;;;;21.30;48.85;96581.47;4935555;28;20213;-27
2023/11/27 09:46:05;;;;;;;1.90;1.80;;;;;;;21.30;48.72;96581.47;4933758;28;20225;-28
2023/11/27 09:48:38;;;;;;;2.20;2.00;;;;;;;21.30;48.78;96581.47;4930916;28;20648;-29
2023/11/27 09:51:08;;;;;;;1.90;1.80;;;;;;;21.30;48.96;96566.13;4952936;28;20680;-26
2023/11/27 09:53:40;;;;;;;1.80;1.70;;;;;;;21.29;48.82;96561.81;4933865;28;20213;-29
2023/11/27 09:56:08;;;;;;;2.13;2.00;;;;;;;21.28;49.00;96552.44;4937560;28;20228;-28
2023/11/27 09:58:36;;;;;;;1.87;1.70;;;;;;;21.30;48.89;96548.25;4933997;29;20227;-38
2023/11/27 10:01:06;;;;;;;2.23;2.03;;;;;;;21.30;49.02;96538.00;4944098;28;20652;-29
2023/11/27 10:03:32;;;;;;;1.60;1.50;;;;;;;21.32;48.71;96540.59;4935304;28;20201;-35
2023/11/27 10:06:02;;;;;;;2.37;2.00;;;;;;;21.30;48.80;96527.78;4935264;28;20603;-26
2023/11/27 10:08:29;;;;;;;1.67;1.47;;;;;;;21.32;49.04;96536.31;4918593;29;20329;-27
2023/11/27 10:10:56;;;;;;;1.80;1.70;;;;;;;21.32;49.09;96536.31;4935300;28;20668;-28
2023/11/27 10:13:35;;;;;;;1.80;1.70;;;;;;;21.32;49.07;96528.66;4935192;28;20220;-33
2023/11/27 10:16:22;;;;;;;1.70;1.60;;;;;;;21.32;49.10;96517.59;4935858;28;20236;-29
2023/11/27 10:18:51;;;;;;;1.63;1.53;;;;;;;21.32;48.78;96504.81;4933657;28;20216;-31
2023/11/27 10:21:21;;;;;;;1.93;1.83;;;;;;;21.28;44.63;96497.91;4939162;28;20210;-26
2023/11/27 10:23:49;;;;;;;2.07;1.87;;;;;;;21.25;41.91;96475.75;4933720;28;20217;-28
2023/11/27 10:26:19;;;;;;;2.83;2.07;;;;;;;21.25;43.76;96488.53;4936007;28;20316;-29
2023/11/27 10:28:48;;;;;;;2.30;2.10;;;;;;;21.25;44.76;96482.53;4934628;28;20271;-30
2023/11/27 10:31:15;;;;;;;2.83;1.93;;;;;;;21.23;44.73;96469.75;4931925;28;20213;-26
2023/11/27 10:33:41;;;;;;;2.10;1.90;;;;;;;21.23;44.76;96471.47;4934673;28;20215;-26
2023/11/27 10:36:09;;;;;;;1.70;1.60;;;;;;;21.22;44.79;96459.50;4932892;28;20231;-29
2023/11/27 10:38:36;;;;;;;1.90;1.80;;;;;;;21.19;44.83;96450.13;4934744;28;20228;-28
2023/11/27 10:41:05;;;;;;;1.90;1.80;;;;;;;21.22;45.26;96451.84;4933816;28;20594;-27
2023/11/27 10:43:33;;;;;;;2.17;1.97;;;;;;;21.22;45.35;96454.41;4935014;29;20652;-30
2023/11/27 10:46:03;;;;;;;2.23;2.03;;;;;;;21.23;45.52;96448.47;4936115;28;20231;-26
2023/11/27 10:48:29;;;;;;;2.23;2.03;;;;;;;21.22;45.58;96447.59;4932772;28;20252;-28
2023/11/27 10:51:10;;;;;;;2.30;2.10;;;;;;;21.23;46.10;96441.63;4917899;28;20592;-26
2023/11/27 10:53:36;;;;;;;2.03;1.83;;;;;;;21.23;46.61;96444.19;4932628;28;20727;-29
2023/11/27 10:56:03;;;;;;;3.33;1.67;;;;;;;21.23;46.74;96425.47;4936150;28;20606;-28
2023/11/27 10:58:30;;;;;;;2.83;2.00;;;;;;;21.23;46.86;96413.53;4948235;28;20269;-27
2023/11/27 11:00:57;;;;;;;2.00;1.80;;;;;;;21.22;47.10;96406.72;4934526;28;20204;-33
2023/11/27 11:03:24;;;;;;;3.83;1.83;;;;;;;21.20;46.96;96398.16;4932582;28;20280;-29
2023/11/27 11:05:51;;;;;;;2.10;2.00;;;;;;;21.25;47.00;96390.56;4933757;28;20209;-26
2023/11/27 11:08:26;;;;;;;1.80;1.70;;;;;;;21.24;47.08;96376.94;4933430;28;20707;-27
2023/11/27 11:10:55;;;;;;;2.10;1.90;;;;;;;21.27;47.06;96382.09;4932195;28;20295;-29
2023/11/27 11:13:22;;;;;;;1.90;1.70;;;;;;;21.27;47.30;96373.56;4933279;28;20213;-26
2023/11/27 11:16:08;;;;;;;2.67;1.93;;;;;;;21.28;47.26;96375.25;4929791;28;20210;-32
2023/11/27 11:18:48;;;;;;;1.70;1.60;;;;;;;21.27;47.54;96365.91;4932906;28;20225;-32
2023/11/27 11:21:24;;;;;;;2.87;2.00;;;;;;;21.26;47.11;96367.59;4941347;28;20680;-31
2023/11/27 11:24:08;;;;;;;2.87;2.43;;;;;;;21.25;47.31;96353.09;4927087;28;20235;-26
2023/11/27 11:27:07;;;;;;;5.30;2.60;;;;;;;21.25;47.31;96325.00;4933831;28;20233;-28
2023/11/27 11:29:36;;;;;;;5.43;2.97;;;;;;;21.25;47.84;96306.25;4890999;28;20549;-29
2023/11/27 11:32:08;;;;;;;6.97;3.43;;;;;;;21.25;47.17;96293.47;4929917;28;20209;-31
2023/11/27 11:34:38;;;;;;;10.93;4.30;;;;;;;21.25;47.44;96302.00;4929937;28;20253;-29
2023/11/27 11:37:06;;;;;;;11.23;3.77;;;;;;;21.26;47.30;96307.97;4931428;28;20307;-28